Time;durP1;ratioP1;P1;durP2;ratioP2;P2;SDS_P1;SDS_P2;PMS_P1;PMS_P2;Temp;Humidity;BMP_temperature;BMP_pressure;BME280_temperature;BME280_humidity;BME280_pressure;Samples;Min_cycle;Max_cycle;Signal;HPM_P1;HPM_P2
2023/09/10 00:00:48;;;;;;;11.03;9.00;;;;;;;22.12;nan;99557.53;5031246;28;20853;-84
2023/09/10 00:03:13;;;;;;;10.00;9.03;;;;;;;22.07;nan;99559.91;5029480;28;20459;-83
2023/09/10 00:05:39;;;;;;;9.50;8.60;;;;;;;22.04;nan;99553.06;5034580;28;20178;-83
2023/09/10 00:08:04;;;;;;;19.20;9.43;;;;;;;22.02;nan;99556.91;5032355;28;20666;-84
2023/09/10 00:10:30;;;;;;;10.23;8.73;;;;;;;22.01;nan;99563.28;5029885;28;20203;-83
2023/09/10 00:12:55;;;;;;;9.90;8.90;;;;;;;22.00;nan;99553.56;5032919;28;20210;-84
2023/09/10 00:15:20;;;;;;;10.00;8.97;;;;;;;22.01;nan;99563.28;5031769;28;20198;-83
2023/09/10 00:17:46;;;;;;;10.90;9.73;;;;;;;22.01;nan;99565.94;5027802;28;20518;-84
2023/09/10 00:20:11;;;;;;;10.10;9.00;;;;;;;22.00;nan;99558.91;5032197;28;20206;-83
2023/09/10 00:22:42;;;;;;;9.67;8.57;;;;;;;22.00;nan;99564.25;5029942;28;20562;-82
2023/09/10 00:25:09;;;;;;;9.20;8.30;;;;;;;21.95;nan;99561.28;5032909;28;20213;-83
2023/09/10 00:27:34;;;;;;;10.40;9.17;;;;;;;21.85;nan;99564.16;5042963;28;20912;-83
2023/09/10 00:29:59;;;;;;;9.53;8.73;;;;;;;21.75;nan;99560.84;5045359;28;20445;-83
2023/09/10 00:32:25;;;;;;;12.03;9.27;;;;;;;21.64;nan;99562.84;5028239;28;20215;-83
2023/09/10 00:34:50;;;;;;;9.67;7.90;;;;;;;21.57;nan;99566.38;5030567;28;20252;-83
2023/09/10 00:37:18;;;;;;;9.27;8.23;;;;;;;21.58;nan;99571.56;5059359;28;20444;-83
2023/09/10 00:39:45;;;;;;;8.53;7.77;;;;;;;21.60;nan;99563.34;5067664;28;20196;-84
2023/09/10 00:42:11;;;;;;;7.80;7.10;;;;;;;21.61;nan;99560.53;5075126;28;20443;-84
2023/09/10 00:44:37;;;;;;;9.37;8.30;;;;;;;21.63;nan;99563.88;5073355;28;20901;-83
2023/09/10 00:47:06;;;;;;;10.80;9.70;;;;;;;21.63;nan;99557.69;5069081;28;20209;-84
2023/09/10 00:49:31;;;;;;;10.73;9.63;;;;;;;21.62;nan;99562.19;5073311;28;20189;-84
2023/09/10 00:52:00;;;;;;;11.17;9.77;;;;;;;21.63;nan;99558.53;5065431;28;20486;-83
2023/09/10 00:54:26;;;;;;;11.07;9.77;;;;;;;21.64;nan;99564.69;5053358;28;20550;-83
2023/09/10 00:56:52;;;;;;;10.30;9.23;;;;;;;21.61;nan;99562.38;5069594;28;20955;-84
2023/09/10 00:59:18;;;;;;;12.43;10.13;;;;;;;21.59;nan;99556.34;5055493;28;20273;-83
2023/09/10 01:01:44;;;;;;;12.57;9.70;;;;;;;21.54;nan;99561.38;5072083;28;20425;-82
2023/09/10 01:04:09;;;;;;;10.77;9.20;;;;;;;21.43;nan;99552.69;5085312;28;20444;-82
2023/09/10 01:06:36;;;;;;;11.57;10.10;;;;;;;21.34;nan;99558.19;5069306;28;20209;-83
2023/09/10 01:09:02;;;;;;;13.00;10.60;;;;;;;21.26;nan;99561.69;5084467;28;20702;-83
2023/09/10 01:11:54;;;;;;;11.00;9.30;;;;;;;21.24;nan;99558.34;5080407;28;20540;-84
2023/09/10 01:14:24;;;;;;;12.60;8.93;;;;;;;21.21;nan;99558.69;5067706;28;20437;-83
2023/09/10 01:17:14;;;;;;;11.10;9.70;;;;;;;21.20;nan;99555.19;5072282;28;20442;-83
2023/09/10 01:19:51;;;;;;;10.97;7.70;;;;;;;21.22;nan;99557.69;5073865;28;20984;-83
2023/09/10 01:22:32;;;;;;;11.57;9.80;;;;;;;21.21;nan;99567.53;5074689;28;20417;-83
2023/09/10 01:24:57;;;;;;;14.40;12.90;;;;;;;21.21;nan;99564.03;5077095;28;20530;-83
2023/09/10 01:27:23;;;;;;;11.97;9.20;;;;;;;21.22;nan;99568.38;5083576;28;20455;-82
2023/09/10 01:29:48;;;;;;;10.60;9.50;;;;;;;21.21;nan;99559.53;5067339;28;20213;-83
2023/09/10 01:32:21;;;;;;;11.43;8.97;;;;;;;21.20;nan;99570.41;5072205;28;20219;-83
2023/09/10 01:35:30;;;;;;;12.43;9.50;;;;;;;21.17;nan;99571.56;5086088;28;20212;-83
2023/09/10 01:38:15;;;;;;;9.73;8.73;;;;;;;21.19;nan;99571.38;5046980;28;20430;-83
2023/09/10 01:40:49;;;;;;;9.50;8.50;;;;;;;21.18;nan;99572.38;5047132;28;20556;-83
2023/09/10 01:43:16;;;;;;;10.27;9.27;;;;;;;21.17;nan;99568.03;5066652;28;20429;-83
2023/09/10 01:45:42;;;;;;;11.03;7.20;;;;;;;21.15;nan;99564.72;5048617;28;20441;-82
2023/09/10 01:48:08;;;;;;;10.40;9.30;;;;;;;21.16;nan;99561.03;5065164;28;20450;-83
2023/09/10 01:50:34;;;;;;;9.97;8.50;;;;;;;21.15;nan;99564.72;5069439;28;20417;-83
2023/09/10 01:52:59;;;;;;;10.70;8.50;;;;;;;21.15;nan;99559.38;5055952;28;20250;-83
2023/09/10 01:55:25;;;;;;;10.03;8.53;;;;;;;21.12;nan;99565.88;5067280;28;20917;-83
2023/09/10 01:57:54;;;;;;;9.83;8.00;;;;;;;21.10;nan;99554.53;5055819;28;20208;-83
2023/09/10 02:00:20;;;;;;;9.93;8.90;;;;;;;21.06;nan;99558.50;5058599;28;20527;-82
2023/09/10 02:02:46;;;;;;;10.80;8.40;;;;;;;21.04;nan;99560.53;5065366;28;20458;-83
2023/09/10 02:05:11;;;;;;;9.13;7.77;;;;;;;21.00;nan;99562.69;5086171;28;20437;-83
2023/09/10 02:07:36;;;;;;;8.90;6.93;;;;;;;20.92;nan;99554.66;5068377;28;20300;-83
2023/09/10 02:10:02;;;;;;;8.97;7.50;;;;;;;20.89;nan;99551.50;5059381;28;20197;-82
2023/09/10 02:12:28;;;;;;;7.73;7.03;;;;;;;20.86;nan;99557.19;5049655;28;20222;-82
2023/09/10 02:14:53;;;;;;;10.00;8.33;;;;;;;20.82;nan;99559.34;5064492;28;20375;-83
2023/09/10 02:17:18;;;;;;;10.23;7.50;;;;;;;20.78;nan;99558.81;5042265;28;20667;-83
2023/09/10 02:19:44;;;;;;;8.93;7.43;;;;;;;20.76;nan;99560.00;5054646;28;20215;-83
2023/09/10 02:22:09;;;;;;;10.90;9.37;;;;;;;20.72;nan;99553.31;5068331;28;20193;-82
2023/09/10 02:24:34;;;;;;;9.67;8.67;;;;;;;20.69;nan;99564.34;5068359;28;20549;-83
2023/09/10 02:27:00;;;;;;;10.30;9.30;;;;;;;20.65;nan;99557.63;5048544;28;20193;-83
2023/09/10 02:29:25;;;;;;;11.27;9.20;;;;;;;20.62;nan;99568.66;5042278;28;20208;-83
2023/09/10 02:31:50;;;;;;;10.57;9.50;;;;;;;20.58;nan;99567.28;5064710;28;20200;-83
2023/09/10 02:34:16;;;;;;;11.47;9.33;;;;;;;20.52;nan;99571.41;5069780;28;20197;-82
2023/09/10 02:36:41;;;;;;;10.50;9.40;;;;;;;20.50;nan;99570.75;5045878;28;20225;-82
2023/09/10 02:39:07;;;;;;;10.97;9.13;;;;;;;20.49;nan;99577.91;5043496;28;20524;-82
2023/09/10 02:41:32;;;;;;;9.77;8.73;;;;;;;20.47;nan;99571.91;5067722;28;20184;-82
2023/09/10 02:43:58;;;;;;;10.30;9.30;;;;;;;20.47;nan;99581.75;5049842;28;20651;-82
2023/09/10 02:46:25;;;;;;;9.40;8.50;;;;;;;20.47;nan;99585.25;5073556;28;20714;-82
2023/09/10 02:48:50;;;;;;;10.73;9.17;;;;;;;20.48;nan;99581.59;5064350;28;20212;-82
2023/09/10 02:51:16;;;;;;;10.80;8.70;;;;;;;20.46;nan;99580.91;5067041;28;20920;-83
2023/09/10 02:53:41;;;;;;;9.57;8.00;;;;;;;20.45;nan;99581.09;5066882;28;20231;-83
2023/09/10 02:56:07;;;;;;;7.50;6.80;;;;;;;20.40;nan;99578.06;5066733;28;20217;-83
2023/09/10 02:58:33;;;;;;;8.87;7.97;;;;;;;20.31;nan;99578.03;5068755;28;20574;-83
2023/09/10 03:01:03;;;;;;;8.40;7.60;;;;;;;20.26;nan;99591.00;5048883;28;20958;-82
2023/09/10 03:03:29;;;;;;;8.80;7.90;;;;;;;20.23;nan;99580.66;5046775;28;20573;-83
2023/09/10 03:05:54;;;;;;;10.27;7.57;;;;;;;20.23;nan;99591.34;5064895;28;20461;-82
2023/09/10 03:08:20;;;;;;;8.67;7.30;;;;;;;20.25;nan;99593.81;5062853;28;20200;-82
2023/09/10 03:10:45;;;;;;;8.17;7.43;;;;;;;20.27;nan;99586.50;5067803;28;20632;-83
2023/09/10 03:13:10;;;;;;;11.57;9.87;;;;;;;20.24;nan;99590.31;5067637;28;20728;-82
2023/09/10 03:15:36;;;;;;;8.77;7.90;;;;;;;20.21;nan;99592.50;5045871;28;20226;-82
2023/09/10 03:18:01;;;;;;;11.60;9.23;;;;;;;20.20;nan;99601.47;5066895;28;20524;-83
2023/09/10 03:20:27;;;;;;;10.10;9.10;;;;;;;20.16;nan;99594.78;5058470;28;20805;-82
2023/09/10 03:22:57;;;;;;;9.07;8.00;;;;;;;20.15;nan;99595.81;5087953;28;20268;-82
2023/09/10 03:25:23;;;;;;;9.77;8.67;;;;;;;20.11;nan;99598.75;5075616;28;20229;-83
2023/09/10 03:27:48;;;;;;;11.23;9.67;;;;;;;20.10;nan;99602.44;5067257;28;20408;-82
2023/09/10 03:30:15;;;;;;;8.83;8.03;;;;;;;20.07;nan;99601.94;5053261;28;20576;-82
2023/09/10 03:32:41;;;;;;;12.47;8.77;;;;;;;20.05;nan;99607.41;5047319;28;20219;-83
2023/09/10 03:35:07;;;;;;;9.23;8.27;;;;;;;20.03;nan;99601.38;5046913;28;21007;-82
2023/09/10 03:37:33;;;;;;;10.60;8.03;;;;;;;20.03;nan;99601.38;5041997;28;20276;-83
2023/09/10 03:39:58;;;;;;;10.73;9.17;;;;;;;20.01;nan;99608.72;5045634;28;20445;-82
2023/09/10 03:42:24;;;;;;;10.00;7.40;;;;;;;19.98;nan;99606.38;5045377;28;20189;-82
2023/09/10 03:44:50;;;;;;;10.87;8.67;;;;;;;19.92;nan;99604.31;5039773;28;20197;-82
2023/09/10 03:47:15;;;;;;;11.90;9.27;;;;;;;19.85;nan;99603.31;5042889;28;20523;-82
2023/09/10 03:49:41;;;;;;;10.60;8.23;;;;;;;19.77;nan;99604.09;5044093;28;20239;-82
2023/09/10 03:52:14;;;;;;;11.20;9.33;;;;;;;19.74;nan;99596.41;5040446;28;20210;-82
2023/09/10 03:54:39;;;;;;;10.57;8.87;;;;;;;19.75;nan;99603.41;5060907;28;20470;-82
2023/09/10 03:57:06;;;;;;;11.20;8.50;;;;;;;19.76;nan;99590.91;5064224;28;20460;-82
2023/09/10 03:59:31;;;;;;;9.17;7.67;;;;;;;19.74;nan;99588.41;5046357;28;20237;-82
2023/09/10 04:01:59;;;;;;;8.20;7.03;;;;;;;19.70;nan;99600.38;5043469;28;20468;-82
2023/09/10 04:04:25;;;;;;;5.77;5.20;;;;;;;19.60;nan;99597.75;5064798;28;20194;-82
2023/09/10 04:06:50;;;;;;;5.90;5.30;;;;;;;19.48;nan;99600.84;5050706;28;20963;-82
2023/09/10 04:09:16;;;;;;;6.20;5.60;;;;;;;19.39;nan;99605.28;5048123;28;20883;-82
2023/09/10 04:11:41;;;;;;;6.30;5.70;;;;;;;19.33;nan;99605.88;5044402;28;20699;-82
2023/09/10 04:14:06;;;;;;;6.23;5.53;;;;;;;19.27;nan;99603.84;5052303;28;20286;-82
2023/09/10 04:16:32;;;;;;;6.77;6.20;;;;;;;19.21;nan;99603.47;5045106;28;20658;-82
2023/09/10 04:18:57;;;;;;;6.80;6.20;;;;;;;19.18;nan;99600.28;5049768;28;20517;-82
2023/09/10 04:21:23;;;;;;;8.13;7.43;;;;;;;19.12;nan;99606.19;5048311;28;20217;-82
2023/09/10 04:23:48;;;;;;;8.17;6.63;;;;;;;19.07;nan;99608.50;5052528;28;20227;-81
2023/09/10 04:26:14;;;;;;;8.03;6.33;;;;;;;19.03;nan;99607.94;5064069;28;20291;-82
2023/09/10 04:28:40;;;;;;;7.73;6.67;;;;;;;19.03;nan;99605.28;5060399;28;20273;-82
2023/09/10 04:31:08;;;;;;;8.70;7.20;;;;;;;19.08;nan;99616.31;5054134;28;20499;-82
2023/09/10 04:33:34;;;;;;;7.60;5.40;;;;;;;19.12;nan;99609.72;5052654;28;20173;-82
2023/09/10 04:36:01;;;;;;;7.63;6.73;;;;;;;19.17;nan;99614.56;5048123;28;20552;-82
2023/09/10 04:38:26;;;;;;;6.40;5.83;;;;;;;19.21;nan;99615.94;5070532;28;20514;-82
2023/09/10 04:40:52;;;;;;;6.50;6.00;;;;;;;19.23;nan;99622.78;5049628;28;21053;-82
2023/09/10 04:43:17;;;;;;;7.50;6.80;;;;;;;19.28;nan;99617.00;5051567;28;20195;-82
2023/09/10 04:45:43;;;;;;;7.37;6.60;;;;;;;19.29;nan;99616.00;5052484;28;20493;-82
2023/09/10 04:48:08;;;;;;;7.30;6.70;;;;;;;19.31;nan;99613.19;5070657;28;20553;-82
2023/09/10 04:50:34;;;;;;;7.63;6.93;;;;;;;19.32;nan;99612.22;5067362;28;20202;-82
2023/09/10 04:53:00;;;;;;;7.50;6.80;;;;;;;19.32;nan;99612.22;5067525;28;20211;-82
2023/09/10 04:55:25;;;;;;;8.40;7.20;;;;;;;19.31;nan;99616.69;5045663;28;20210;-82
2023/09/10 04:57:51;;;;;;;7.50;6.80;;;;;;;19.29;nan;99618.69;5072745;28;20444;-82
2023/09/10 05:00:17;;;;;;;9.33;7.40;;;;;;;19.27;nan;99615.31;5051694;28;20296;-82
2023/09/10 05:02:42;;;;;;;7.33;6.63;;;;;;;19.28;nan;99622.34;5055535;28;20529;-83
2023/09/10 05:05:08;;;;;;;10.70;9.00;;;;;;;19.27;nan;99625.13;5052393;28;20638;-82
2023/09/10 05:07:33;;;;;;;9.70;8.80;;;;;;;19.26;nan;99623.47;5041567;28;20266;-83
2023/09/10 05:09:59;;;;;;;8.30;7.30;;;;;;;19.22;nan;99617.59;5056730;28;20222;-82
2023/09/10 05:12:24;;;;;;;11.00;8.80;;;;;;;19.23;nan;99627.28;5067027;28;20218;-82
2023/09/10 05:14:50;;;;;;;9.23;8.20;;;;;;;19.23;nan;99625.44;5046534;28;20332;-82
2023/09/10 05:17:16;;;;;;;10.23;8.10;;;;;;;19.24;nan;99624.44;5065382;28;20210;-82
2023/09/10 05:19:43;;;;;;;8.20;7.40;;;;;;;19.25;nan;99627.94;5053293;28;20194;-82
2023/09/10 05:22:08;;;;;;;9.70;7.80;;;;;;;19.23;nan;99627.28;5054914;28;20459;-82
2023/09/10 05:24:34;;;;;;;10.23;9.10;;;;;;;19.22;nan;99634.41;5053175;28;20456;-82
2023/09/10 05:26:59;;;;;;;10.33;9.23;;;;;;;19.23;nan;99640.59;5052212;28;20201;-82
2023/09/10 05:29:26;;;;;;;10.57;8.87;;;;;;;19.23;nan;99636.09;5070927;28;20199;-82
2023/09/10 05:31:51;;;;;;;10.30;7.40;;;;;;;19.23;nan;99630.78;5051823;28;20242;-82
2023/09/10 05:34:17;;;;;;;9.70;6.00;;;;;;;19.26;nan;99629.63;5066093;28;20706;-82
2023/09/10 05:36:42;;;;;;;7.33;5.80;;;;;;;19.27;nan;99622.47;5051526;28;20234;-82
2023/09/10 05:39:08;;;;;;;6.77;6.17;;;;;;;19.27;nan;99631.31;5063847;28;20205;-82
2023/09/10 05:41:33;;;;;;;6.80;6.10;;;;;;;19.26;nan;99639.47;5049500;28;20205;-83
2023/09/10 05:43:59;;;;;;;7.00;6.23;;;;;;;19.23;nan;99635.28;5051037;28;20317;-83
2023/09/10 05:46:25;;;;;;;7.07;6.37;;;;;;;19.19;nan;99628.56;5047862;28;20198;-82
2023/09/10 05:48:50;;;;;;;7.50;6.10;;;;;;;19.18;nan;99638.38;5051348;28;21478;-83
2023/09/10 05:51:16;;;;;;;6.60;6.07;;;;;;;19.20;nan;99632.91;5048948;28;20199;-81
2023/09/10 05:53:42;;;;;;;8.13;7.30;;;;;;;19.27;nan;99635.78;5062945;28;20219;-82
2023/09/10 05:56:08;;;;;;;9.63;8.33;;;;;;;19.55;nan;99629.38;5059514;28;20568;-82
2023/09/10 05:58:34;;;;;;;11.23;7.40;;;;;;;19.88;nan;99638.47;5059490;28;20420;-82
2023/09/10 06:01:00;;;;;;;10.30;7.97;;;;;;;20.06;nan;99643.75;5051772;28;20446;-82
2023/09/10 06:03:26;;;;;;;8.90;8.20;;;;;;;20.17;nan;99641.78;5059228;28;20427;-82
2023/09/10 06:05:51;;;;;;;8.73;7.83;;;;;;;20.22;nan;99642.97;5059120;28;20210;-82
2023/09/10 06:08:17;;;;;;;8.13;7.33;;;;;;;20.26;nan;99638.19;5057113;28;20214;-82
2023/09/10 06:10:43;;;;;;;8.47;7.67;;;;;;;20.29;nan;99641.38;5076914;28;20404;-82
2023/09/10 06:13:09;;;;;;;10.33;8.00;;;;;;;20.29;nan;99644.03;5077769;28;20476;-83
2023/09/10 06:15:34;;;;;;;10.50;7.77;;;;;;;20.27;nan;99645.19;5074512;28;20193;-83
2023/09/10 06:18:00;;;;;;;10.80;7.97;;;;;;;20.36;nan;99644.25;5057338;28;20228;-83
2023/09/10 06:20:25;;;;;;;7.50;6.73;;;;;;;20.78;nan;99644.25;5076064;28;20263;-83
2023/09/10 06:22:52;;;;;;;9.13;6.70;;;;;;;21.38;nan;99645.06;5073235;28;20200;-83
2023/09/10 06:25:19;;;;;;;10.07;7.80;;;;;;;21.75;nan;99641.03;5057139;28;20778;-83
2023/09/10 06:27:44;;;;;;;10.67;7.67;;;;;;;21.90;nan;99641.16;5060259;28;20420;-84
2023/09/10 06:30:10;;;;;;;7.60;6.87;;;;;;;21.93;nan;99651.53;5060412;28;20512;-83
2023/09/10 06:32:36;;;;;;;11.30;8.57;;;;;;;21.92;nan;99649.88;5059486;28;20230;-83
2023/09/10 06:35:01;;;;;;;8.63;7.83;;;;;;;21.92;nan;99649.88;5058968;28;20463;-83
2023/09/10 06:37:26;;;;;;;9.93;9.03;;;;;;;21.88;nan;99647.53;5059729;28;20295;-83
2023/09/10 06:39:52;;;;;;;10.70;9.63;;;;;;;21.88;nan;99646.72;5058026;28;20191;-84
2023/09/10 06:42:18;;;;;;;11.17;9.27;;;;;;;21.87;nan;99655.72;5082951;28;20687;-83
2023/09/10 06:44:59;;;;;;;9.33;8.40;;;;;;;21.86;nan;99657.56;5058211;28;20412;-83
2023/09/10 06:47:24;;;;;;;10.70;9.60;;;;;;;21.86;nan;99662.06;5076660;28;20967;-83
2023/09/10 06:49:50;;;;;;;10.73;9.50;;;;;;;21.84;nan;99662.22;5078197;28;20204;-83
2023/09/10 06:52:15;;;;;;;11.30;9.00;;;;;;;21.88;nan;99665.44;5082150;28;20614;-83
2023/09/10 06:54:40;;;;;;;10.67;9.07;;;;;;;21.92;nan;99666.75;5076316;28;20695;-83
2023/09/10 06:57:06;;;;;;;11.70;10.00;;;;;;;21.97;nan;99671.59;5080435;28;20204;-83
2023/09/10 06:59:31;;;;;;;12.43;9.87;;;;;;;22.00;nan;99666.72;5080692;28;20201;-84
2023/09/10 07:01:57;;;;;;;12.00;10.60;;;;;;;22.04;nan;99664.56;5079079;28;20208;-83
2023/09/10 07:04:24;;;;;;;9.80;8.80;;;;;;;22.09;nan;99672.91;5078102;28;20199;-85
2023/09/10 07:06:51;;;;;;;11.50;10.27;;;;;;;22.15;nan;99674.06;5082052;28;20243;-85
2023/09/10 07:09:21;;;;;;;13.17;9.53;;;;;;;22.21;nan;99668.91;5082718;28;20839;-84
2023/09/10 07:11:47;;;;;;;13.00;10.40;;;;;;;22.27;nan;99668.19;5077439;28;20504;-85
2023/09/10 07:14:12;;;;;;;12.50;8.67;;;;;;;22.33;nan;99676.56;5076630;28;20425;-83
2023/09/10 07:16:38;;;;;;;12.90;8.93;;;;;;;22.40;nan;99669.50;5076020;28;20496;-84
2023/09/10 07:19:03;;;;;;;10.17;9.13;;;;;;;22.48;nan;99672.16;5078833;28;20211;-83
2023/09/10 07:21:29;;;;;;;9.97;8.97;;;;;;;22.57;nan;99672.97;5080336;28;20277;-84
2023/09/10 07:23:54;;;;;;;11.87;9.00;;;;;;;22.64;nan;99674.78;5080852;28;20197;-84
2023/09/10 07:26:20;;;;;;;9.53;8.50;;;;;;;22.72;nan;99672.06;5077591;28;20201;-83
2023/09/10 07:28:45;;;;;;;10.50;9.40;;;;;;;22.79;nan;99666.00;5077682;28;20323;-85
2023/09/10 07:31:11;;;;;;;11.63;9.10;;;;;;;22.83;nan;99668.16;5080493;28;20199;-85
2023/09/10 07:33:36;;;;;;;11.60;10.40;;;;;;;23.02;nan;99663.41;5074961;28;20197;-85
2023/09/10 07:36:04;;;;;;;10.63;9.40;;;;;;;23.69;nan;99665.44;5077086;28;20476;-84
2023/09/10 07:38:33;;;;;;;11.43;9.73;;;;;;;24.61;nan;99665.19;5078228;28;20268;-83
2023/09/10 07:40:58;;;;;;;11.23;10.23;;;;;;;25.51;nan;99662.06;5081456;28;20453;-84
2023/09/10 07:43:23;;;;;;;10.70;9.57;;;;;;;26.32;nan;99650.03;5085011;28;20451;-86
2023/09/10 07:45:49;;;;;;;11.20;10.03;;;;;;;27.07;nan;99659.91;5075159;28;20211;-85
2023/09/10 07:48:15;;;;;;;10.63;9.53;;;;;;;27.55;nan;99651.72;5082480;28;20305;-85
2023/09/10 07:50:52;;;;;;;10.77;9.67;;;;;;;28.17;nan;99652.31;5082362;28;20540;-84
2023/09/10 07:53:18;;;;;;;13.03;9.13;;;;;;;28.71;nan;99657.59;5076060;28;20570;-84
2023/09/10 07:55:43;;;;;;;10.33;8.70;;;;;;;29.21;nan;99655.03;5073497;28;20454;-85
2023/09/10 07:58:09;;;;;;;9.60;8.67;;;;;;;29.61;nan;99652.88;5080370;28;20447;-85
2023/09/10 08:00:36;;;;;;;8.93;8.13;;;;;;;30.09;nan;99652.25;5070925;28;20205;-84
2023/09/10 08:03:03;;;;;;;9.87;8.70;;;;;;;30.49;nan;99649.16;5083732;28;20264;-85
2023/09/10 08:05:30;;;;;;;10.10;9.10;;;;;;;30.79;nan;99651.06;5081926;28;20477;-84
2023/09/10 08:08:02;;;;;;;11.40;9.27;;;;;;;31.11;nan;99649.00;5078351;28;21314;-84
2023/09/10 08:10:32;;;;;;;9.60;8.50;;;;;;;31.37;nan;99655.09;5077932;28;21129;-84
2023/09/10 08:12:58;;;;;;;12.93;9.40;;;;;;;31.59;nan;99642.63;5082480;28;20482;-85
2023/09/10 08:15:24;;;;;;;8.73;7.90;;;;;;;31.90;nan;99646.91;5087882;28;20447;-86
2023/09/10 08:17:51;;;;;;;11.00;9.97;;;;;;;32.28;nan;99648.31;5090470;28;20291;-85
2023/09/10 08:20:16;;;;;;;9.17;8.27;;;;;;;32.62;nan;99648.47;5088960;28;20638;-85
2023/09/10 08:22:43;;;;;;;10.07;9.13;;;;;;;32.95;nan;99652.41;5080731;28;20550;-86
2023/09/10 08:25:08;;;;;;;10.53;9.53;;;;;;;32.97;nan;99650.25;5081744;28;20197;-85
2023/09/10 08:27:35;;;;;;;15.20;8.23;;;;;;;32.95;nan;99646.97;5075441;28;20478;-85
2023/09/10 08:30:03;;;;;;;12.07;9.00;;;;;;;33.13;nan;99644.03;5077571;28;20784;-85
2023/09/10 08:32:29;;;;;;;9.47;8.23;;;;;;;33.35;nan;99641.47;5082520;28;20481;-86
2023/09/10 08:34:54;;;;;;;9.83;8.80;;;;;;;33.48;nan;99640.28;5073470;28;20458;-85
2023/09/10 08:37:20;;;;;;;10.77;9.70;;;;;;;33.42;nan;99638.56;5073896;28;20431;-86
2023/09/10 08:39:45;;;;;;;9.33;8.43;;;;;;;33.40;nan;99637.97;5058962;28;20465;-85
2023/09/10 08:42:40;;;;;;;11.00;9.90;;;;;;;33.53;nan;99643.13;5078245;28;20280;-86
2023/09/10 08:45:08;;;;;;;12.13;9.50;;;;;;;33.57;nan;99644.31;5072682;28;20224;-85
2023/09/10 08:47:40;;;;;;;10.40;8.60;;;;;;;33.53;nan;99642.28;5079465;28;20461;-85
2023/09/10 08:50:10;;;;;;;9.37;8.40;;;;;;;33.37;nan;99638.47;5076650;28;20461;-85
2023/09/10 08:52:45;;;;;;;9.90;8.57;;;;;;;33.22;nan;99636.34;5078327;28;20474;-85
2023/09/10 08:55:11;;;;;;;9.43;8.57;;;;;;;33.16;nan;99635.41;5077863;28;20457;-85
2023/09/10 08:57:43;;;;;;;8.90;7.83;;;;;;;33.03;nan;99643.88;5076689;28;20466;-85
2023/09/10 09:00:12;;;;;;;9.40;8.43;;;;;;;32.79;nan;99638.50;5078587;28;20526;-81
2023/09/10 09:02:45;;;;;;;8.27;7.67;;;;;;;32.70;nan;99639.94;5074982;28;20534;-81
2023/09/10 09:05:11;;;;;;;9.00;8.20;;;;;;;32.43;nan;99636.09;5077468;28;20457;-83
2023/09/10 09:07:54;;;;;;;8.90;8.10;;;;;;;32.06;nan;99633.69;5081319;28;20458;-82
2023/09/10 09:10:28;;;;;;;8.77;8.03;;;;;;;31.82;nan;99638.28;5075739;28;20540;-82
2023/09/10 09:12:59;;;;;;;8.43;7.70;;;;;;;31.57;nan;99643.91;5078549;28;20471;-81
2023/09/10 09:15:28;;;;;;;10.20;8.10;;;;;;;31.41;nan;99631.88;5077677;28;20443;-82
2023/09/10 09:17:55;;;;;;;9.10;8.20;;;;;;;31.19;nan;99635.09;5076029;28;20462;-81
2023/09/10 09:20:23;;;;;;;8.63;7.70;;;;;;;31.06;nan;99627.97;5077342;28;20462;-82
2023/09/10 09:22:54;;;;;;;16.43;11.03;;;;;;;30.93;nan;99630.88;5076292;28;20515;-81
2023/09/10 09:25:19;;;;;;;9.93;8.73;;;;;;;30.84;nan;99627.66;5076351;28;21034;-82
2023/09/10 09:27:46;;;;;;;9.80;9.00;;;;;;;30.71;nan;99630.53;5078404;28;20510;-85
2023/09/10 09:30:12;;;;;;;10.43;9.33;;;;;;;30.52;nan;99626.19;5074568;28;20224;-85
2023/09/10 09:32:39;;;;;;;9.23;7.50;;;;;;;30.52;nan;99632.44;5076390;28;20958;-84
2023/09/10 09:41:41;;;;;;;10.17;9.07;;;;;;;30.65;nan;99617.88;5050166;28;20525;-83
2023/09/10 09:45:12;;;;;;;10.03;9.03;;;;;;;30.68;nan;99619.28;5082495;28;20585;-83
2023/09/10 09:48:18;;;;;;;;;;;;;;;;;;;;;
2023/09/10 09:51:05;;;;;;;11.73;10.00;;;;;;;30.80;nan;99615.59;5021424;28;20465;-83
2023/09/10 09:53:56;;;;;;;10.17;9.27;;;;;;;30.91;nan;99603.16;5018194;28;20906;-83
2023/09/10 09:57:02;;;;;;;13.30;8.80;;;;;;;30.93;nan;99598.31;5023922;28;20483;-83
2023/09/10 09:59:49;;;;;;;10.63;9.53;;;;;;;30.82;nan;99597.22;5006703;28;20460;-83
2023/09/10 10:02:24;;;;;;;11.20;10.00;;;;;;;30.71;nan;99599.88;5035597;28;20489;-83
2023/09/10 10:04:50;;;;;;;11.20;9.40;;;;;;;30.73;nan;99592.31;5029838;28;20471;-84
2023/09/10 10:07:15;;;;;;;9.13;8.23;;;;;;;30.77;nan;99596.22;5028627;28;20473;-83
2023/09/10 10:10:20;;;;;;;8.83;7.97;;;;;;;30.75;nan;99590.19;5020395;28;20201;-83
2023/09/10 10:12:46;;;;;;;8.90;8.10;;;;;;;30.72;nan;99591.50;5001866;28;20474;-83
2023/09/10 10:15:25;;;;;;;10.80;8.03;;;;;;;30.82;nan;99590.97;5030237;28;20453;-83
2023/09/10 10:18:15;;;;;;;10.47;8.30;;;;;;;30.99;nan;99577.59;5016693;28;20214;-83
2023/09/10 10:26:12;;;;;;;9.77;8.17;;;;;;;30.91;nan;99570.59;5051272;28;20436;-84
2023/09/10 10:29:03;;;;;;;9.13;7.30;;;;;;;30.98;nan;99565.91;5047466;28;20440;-84
2023/09/10 10:31:39;;;;;;;10.00;7.90;;;;;;;31.08;nan;99568.88;5030045;28;20460;-84
2023/09/10 10:34:16;;;;;;;13.10;8.80;;;;;;;31.18;nan;99551.19;5020210;28;20487;-83
2023/09/10 10:38:09;;;;;;;9.00;8.10;;;;;;;31.19;nan;99558.25;5043159;28;20528;-84
2023/09/10 10:40:57;;;;;;;8.20;7.47;;;;;;;31.21;nan;99551.53;4983329;28;20467;-84
2023/09/10 10:44:08;;;;;;;8.77;7.87;;;;;;;31.29;nan;99550.38;4988201;28;20512;-84
2023/09/10 10:50:11;;;;;;;9.83;7.40;;;;;;;31.26;nan;99548.97;5155774;23;20512;-83
2023/09/10 10:53:06;;;;;;;9.53;8.23;;;;;;;31.38;nan;99545.44;5060797;28;20995;-83
2023/09/10 10:55:53;;;;;;;9.10;7.40;;;;;;;31.53;nan;99546.63;5085857;28;20440;-84
2023/09/10 10:58:28;;;;;;;10.57;7.73;;;;;;;31.60;nan;99543.00;5066838;28;20861;-84
2023/09/10 11:01:37;;;;;;;9.23;8.23;;;;;;;31.58;nan;99540.50;5086348;28;20419;-83
2023/09/10 11:08:18;;;;;;;10.63;8.43;;;;;;;31.47;nan;99541.34;5098221;23;20574;-84
2023/09/10 11:11:24;;;;;;;9.33;8.43;;;;;;;31.38;nan;99529.16;5086142;28;20447;-84
2023/09/10 11:14:12;;;;;;;8.67;7.77;;;;;;;31.43;nan;99532.00;5077508;28;21108;-84
2023/09/10 11:16:43;;;;;;;9.73;8.60;;;;;;;31.48;nan;99530.22;5060612;28;20477;-84
2023/09/10 11:19:50;;;;;;;10.70;8.07;;;;;;;31.50;nan;99528.13;5046633;28;20440;-84
2023/09/10 11:23:06;;;;;;;8.80;8.00;;;;;;;31.49;nan;99526.47;5061347;28;20415;-84
2023/09/10 11:25:34;;;;;;;8.57;7.77;;;;;;;31.50;nan;99525.41;5057735;28;20456;-84
2023/09/10 11:32:21;;;;;;;9.50;8.60;;;;;;;31.48;nan;99523.97;5057287;28;20513;-84
2023/09/10 11:34:49;;;;;;;9.03;7.13;;;;;;;31.55;nan;99521.16;5062357;28;20534;-84
2023/09/10 11:37:28;;;;;;;8.73;8.03;;;;;;;31.59;nan;99517.72;5055471;28;20899;-86
2023/09/10 11:40:12;;;;;;;8.37;7.57;;;;;;;31.59;nan;99503.31;5027615;28;20518;-84
2023/09/10 11:46:31;;;;;;;8.83;6.70;;;;;;;31.62;nan;99513.69;5065782;28;21040;-84
2023/09/10 11:49:25;;;;;;;8.53;7.63;;;;;;;31.57;nan;99505.44;5062915;28;20475;-85
2023/09/10 11:52:38;;;;;;;8.70;7.27;;;;;;;31.60;nan;99502.28;5060265;28;20463;-84
2023/09/10 11:58:19;;;;;;;11.30;8.83;;;;;;;31.60;nan;99505.00;5135769;23;20839;-84
2023/09/10 12:01:03;;;;;;;10.20;7.10;;;;;;;31.60;nan;99500.38;5053849;28;20447;-84
2023/09/10 12:03:51;;;;;;;8.63;7.70;;;;;;;31.59;nan;99504.13;5064357;28;20453;-84
2023/09/10 12:06:31;;;;;;;8.50;7.80;;;;;;;31.59;nan;99504.13;5057989;28;20448;-84
2023/09/10 12:09:10;;;;;;;10.20;7.60;;;;;;;31.56;nan;99501.09;5059150;28;20440;-84
2023/09/10 12:11:47;;;;;;;7.60;6.90;;;;;;;31.61;nan;99493.88;5064474;28;20452;-85
2023/09/10 12:14:25;;;;;;;8.67;6.40;;;;;;;31.65;nan;99491.50;5063023;28;20481;-84
2023/09/10 12:16:57;;;;;;;7.17;6.57;;;;;;;31.67;nan;99500.25;5061236;28;20460;-83
2023/09/10 12:19:42;;;;;;;11.90;6.97;;;;;;;31.68;nan;99496.47;5038926;28;20543;-84
2023/09/10 12:22:28;;;;;;;6.97;6.27;;;;;;;31.73;nan;99489.25;5052022;28;20948;-84
2023/09/10 12:25:28;;;;;;;8.03;6.77;;;;;;;31.83;nan;99490.53;5037760;28;20451;-84
2023/09/10 12:28:05;;;;;;;7.87;7.10;;;;;;;31.93;nan;99488.88;5054953;28;20457;-84
2023/09/10 12:30:49;;;;;;;8.07;7.20;;;;;;;32.00;nan;99487.91;5056647;28;20452;-85
2023/09/10 12:33:33;;;;;;;8.00;7.20;;;;;;;32.00;nan;99477.91;5051192;28;20485;-84